createdAt,value
2019-04-25T00:01:17.450Z,1.67
2019-04-25T00:03:46.816Z,1.70
2019-04-25T00:06:16.036Z,1.80
2019-04-25T00:08:45.242Z,2.07
2019-04-25T00:11:14.516Z,2.40
2019-04-25T00:13:44.428Z,1.90
2019-04-25T00:16:14.775Z,2.33
2019-04-25T00:18:44.267Z,2.27
2019-04-25T00:21:21.952Z,2.00
2019-04-25T00:23:55.826Z,2.30
2019-04-25T00:26:46.789Z,2.27
2019-04-25T00:29:16.172Z,2.60
2019-04-25T00:31:45.820Z,2.20
2019-04-25T00:34:14.827Z,2.40
2019-04-25T00:36:45.565Z,2.47
2019-04-25T00:39:14.741Z,2.37
2019-04-25T00:41:45.504Z,2.17
2019-04-25T00:44:14.790Z,3.07
2019-04-25T00:46:47.811Z,2.83
2019-04-25T00:49:14.579Z,2.37
2019-04-25T00:51:44.509Z,2.60
2019-04-25T00:54:13.893Z,2.50
2019-04-25T00:56:45.801Z,2.60
2019-04-25T00:59:19.657Z,2.40
2019-04-25T01:01:56.656Z,2.20
2019-04-25T01:04:26.539Z,2.43
2019-04-25T01:06:55.582Z,2.53
2019-04-25T01:09:26.082Z,2.33
2019-04-25T01:11:55.203Z,2.30
2019-04-25T01:14:24.219Z,2.10
2019-04-25T01:16:54.903Z,2.40
2019-04-25T01:19:24.043Z,2.30
2019-04-25T01:21:54.808Z,2.70
2019-04-25T01:24:26.765Z,2.53
2019-04-25T01:26:55.916Z,2.50
2019-04-25T01:29:25.061Z,2.40
2019-04-25T01:31:55.276Z,2.23
2019-04-25T01:34:35.220Z,2.40
2019-04-25T01:37:17.401Z,2.47
2019-04-25T01:40:04.929Z,2.00
2019-04-25T01:42:46.247Z,1.80
2019-04-25T01:45:15.446Z,2.17
2019-04-25T01:47:45.542Z,2.10
2019-04-25T01:50:14.664Z,2.27
2019-04-25T01:52:43.656Z,2.03
2019-04-25T01:55:13.761Z,2.13
2019-04-25T01:57:45.079Z,2.53
2019-04-25T02:00:16.317Z,2.33
2019-04-25T02:02:45.712Z,2.50
2019-04-25T02:05:14.753Z,2.17
2019-04-25T02:07:44.424Z,2.60
2019-04-25T02:10:13.938Z,2.10
2019-04-25T02:12:48.169Z,2.63
2019-04-25T02:15:19.642Z,2.20
2019-04-25T02:17:48.659Z,2.23
2019-04-25T02:20:17.776Z,2.30
2019-04-25T02:22:46.773Z,2.07
2019-04-25T02:25:15.783Z,2.43
2019-04-25T02:27:45.171Z,2.00
2019-04-25T02:30:15.718Z,2.10
2019-04-25T02:32:45.205Z,2.30
2019-04-25T02:35:14.830Z,2.00
2019-04-25T02:37:45.122Z,2.23
2019-04-25T02:40:14.606Z,2.10
2019-04-25T02:42:44.342Z,2.40
2019-04-25T02:45:30.991Z,1.87
2019-04-25T02:48:14.200Z,2.03
2019-04-25T02:50:56.880Z,2.00
2019-04-25T02:53:34.483Z,1.70
2019-04-25T02:56:12.355Z,1.70
2019-04-25T02:58:35.571Z,1.73
2019-04-25T03:01:16.215Z,1.70
2019-04-25T03:03:36.730Z,1.80
2019-04-25T03:06:09.359Z,1.93
2019-04-25T03:08:37.893Z,2.10
2019-04-25T03:11:09.141Z,1.63
2019-04-25T03:13:39.177Z,1.97
2019-04-25T03:16:10.836Z,2.00
2019-04-25T03:18:47.641Z,1.70
2019-04-25T03:21:24.968Z,1.60
2019-04-25T03:23:55.002Z,1.87
2019-04-25T03:26:24.051Z,1.90
2019-04-25T03:28:53.732Z,2.10
2019-04-25T03:31:26.727Z,1.70
2019-04-25T03:33:55.800Z,2.10
2019-04-25T03:36:24.304Z,1.93
2019-04-25T03:38:54.163Z,1.70
2019-04-25T03:41:24.523Z,1.93
2019-04-25T03:43:54.166Z,1.70
2019-04-25T03:46:23.444Z,1.77
2019-04-25T03:48:53.995Z,1.90
2019-04-25T03:51:23.982Z,1.83
2019-04-25T03:53:53.621Z,1.60
2019-04-25T03:56:22.872Z,1.90
2019-04-25T03:58:52.175Z,2.00
2019-04-25T04:01:21.567Z,1.77
2019-04-25T04:03:50.584Z,1.73
2019-04-25T04:06:19.628Z,1.50
2019-04-25T04:08:48.975Z,1.93
2019-04-25T04:11:18.355Z,2.10
2019-04-25T04:13:47.371Z,1.80
2019-04-25T04:16:19.637Z,1.80
2019-04-25T04:18:50.385Z,1.67
2019-04-25T04:21:44.661Z,1.63
2019-04-25T04:24:17.851Z,1.60
2019-04-25T04:27:09.027Z,1.97
2019-04-25T04:29:38.510Z,1.70
2019-04-25T04:32:08.574Z,2.00
2019-04-25T04:34:37.731Z,1.87
2019-04-25T04:37:07.560Z,1.70
2019-04-25T04:39:36.735Z,1.63
2019-04-25T04:42:05.738Z,1.30
2019-04-25T04:44:35.095Z,1.50
2019-04-25T04:47:04.511Z,1.60
2019-04-25T04:49:34.229Z,1.53
2019-04-25T04:52:04.542Z,1.77
2019-04-25T04:54:34.619Z,1.80
2019-04-25T04:57:18.154Z,1.97
2019-04-25T04:59:36.682Z,1.93
2019-04-25T05:02:27.476Z,1.73
2019-04-25T05:05:14.802Z,1.43
2019-04-25T05:07:54.245Z,1.67
2019-04-25T05:10:23.729Z,1.43
2019-04-25T05:12:53.829Z,1.40
2019-04-25T05:15:24.588Z,1.83
2019-04-25T05:17:54.266Z,1.87
2019-04-25T05:20:24.188Z,2.03
2019-04-25T05:22:54.971Z,2.10
2019-04-25T05:25:24.802Z,1.80
2019-04-25T05:28:00.685Z,1.80
2019-04-25T05:30:31.007Z,1.83
2019-04-25T05:33:00.447Z,2.00
2019-04-25T05:35:29.440Z,1.70
2019-04-25T05:37:58.541Z,1.80
2019-04-25T05:40:27.539Z,1.80
2019-04-25T05:43:09.572Z,1.97
2019-04-25T05:45:38.591Z,1.87
2019-04-25T05:48:07.691Z,2.00
2019-04-25T05:50:36.986Z,1.93
2019-04-25T05:53:06.027Z,2.13
2019-04-25T05:55:35.407Z,1.93
2019-04-25T05:58:04.811Z,1.87
2019-04-25T06:00:34.305Z,1.77
2019-04-25T06:03:03.887Z,1.70
2019-04-25T06:05:33.518Z,1.70
2019-04-25T06:08:04.299Z,1.60
2019-04-25T06:10:53.830Z,2.00
2019-04-25T06:13:36.973Z,1.93
2019-04-25T06:16:18.561Z,1.90
2019-04-25T06:19:13.631Z,2.27
2019-04-25T06:21:34.539Z,1.67
2019-04-25T06:24:25.968Z,1.77
2019-04-25T06:27:20.543Z,2.27
2019-04-25T06:29:59.015Z,1.77
2019-04-25T06:32:24.993Z,1.73
2019-04-25T06:34:54.773Z,2.03
2019-04-25T06:37:24.942Z,2.10
2019-04-25T06:39:54.571Z,1.93
2019-04-25T06:42:24.824Z,2.13
2019-04-25T06:45:06.607Z,1.70
2019-04-25T06:47:44.244Z,1.73
2019-04-25T06:50:15.708Z,1.80
2019-04-25T06:52:44.717Z,2.30
2019-04-25T06:55:14.123Z,1.90
2019-04-25T06:57:44.164Z,1.63
2019-04-25T07:00:15.799Z,2.03
2019-04-25T07:02:45.175Z,1.43
2019-04-25T07:05:25.855Z,1.60
2019-04-25T07:07:45.566Z,1.83
2019-04-25T07:10:15.459Z,1.90
2019-04-25T07:12:44.494Z,1.77
2019-04-25T07:15:13.882Z,1.67
2019-04-25T07:17:43.595Z,2.10
2019-04-25T07:20:14.043Z,1.80
2019-04-25T07:22:43.792Z,1.37
2019-04-25T07:25:16.039Z,1.73
2019-04-25T07:28:23.829Z,1.60
2019-04-25T07:31:13.731Z,1.47
2019-04-25T07:34:04.653Z,1.77
2019-04-25T07:36:35.103Z,1.87
2019-04-25T07:39:10.401Z,1.50
2019-04-25T07:41:38.701Z,1.80
2019-04-25T07:44:07.720Z,1.50
2019-04-25T07:46:39.521Z,1.63
2019-04-25T07:49:08.148Z,2.00
2019-04-25T07:51:37.145Z,1.83
2019-04-25T07:54:07.551Z,1.47
2019-04-25T07:56:36.557Z,1.50
2019-04-25T07:59:07.098Z,1.60
2019-04-25T08:01:37.905Z,1.57
2019-04-25T08:04:07.309Z,1.57
2019-04-25T08:06:36.325Z,1.40
2019-04-25T08:09:08.312Z,1.37
2019-04-25T08:11:38.213Z,1.47
2019-04-25T08:14:18.441Z,1.43
2019-04-25T08:16:49.981Z,1.50
2019-04-25T08:19:18.986Z,1.80
2019-04-25T08:21:48.852Z,1.50
2019-04-25T08:24:17.880Z,1.70
2019-04-25T08:26:46.879Z,1.50
2019-04-25T08:29:15.887Z,1.40
2019-04-25T08:31:45.404Z,1.73
2019-04-25T08:34:15.090Z,2.10
2019-04-25T08:36:45.732Z,2.20
2019-04-25T08:39:15.179Z,1.80
2019-04-25T08:41:45.652Z,1.57
2019-04-25T08:44:15.062Z,1.50
2019-04-25T08:46:48.421Z,1.90
2019-04-25T08:49:36.193Z,1.60
2019-04-25T08:52:05.469Z,1.60
2019-04-25T08:54:57.654Z,1.70
2019-04-25T08:57:45.724Z,1.73
2019-04-25T09:00:35.710Z,1.63
2019-04-25T09:03:07.807Z,1.87
2019-04-25T09:05:40.604Z,1.57
2019-04-25T09:08:09.574Z,1.70
2019-04-25T09:10:40.075Z,1.53
2019-04-25T09:13:09.800Z,1.50
2019-04-25T09:15:39.486Z,1.80
2019-04-25T09:18:08.877Z,1.57
2019-04-25T09:20:39.611Z,1.40
2019-04-25T09:23:08.987Z,1.90
2019-04-25T09:25:38.653Z,1.77
2019-04-25T09:28:07.666Z,1.60
2019-04-25T09:30:37.110Z,1.57
2019-04-25T09:33:06.528Z,1.43
2019-04-25T09:35:36.226Z,1.43
2019-04-25T09:38:05.659Z,1.50
2019-04-25T09:40:35.985Z,1.40
2019-04-25T09:43:05.091Z,1.87
2019-04-25T09:45:46.147Z,1.33
2019-04-25T09:48:35.399Z,1.53
2019-04-25T09:51:20.629Z,1.33
2019-04-25T09:53:54.291Z,1.20
2019-04-25T09:56:28.823Z,1.63
2019-04-25T09:59:09.994Z,1.53
2019-04-25T10:01:40.293Z,1.77
2019-04-25T10:04:09.996Z,1.60
2019-04-25T10:06:38.994Z,1.70
2019-04-25T10:09:09.194Z,1.53
2019-04-25T10:11:38.407Z,1.60
2019-04-25T10:14:28.363Z,1.43
2019-04-25T10:16:57.699Z,1.50
2019-04-25T10:19:26.727Z,1.30
2019-04-25T10:21:55.853Z,1.40
2019-04-25T10:24:24.852Z,1.67
2019-04-25T10:26:54.789Z,1.67
2019-04-25T10:29:24.251Z,1.47
2019-04-25T10:31:55.465Z,1.60
2019-04-25T10:34:24.266Z,1.50
2019-04-25T10:36:53.949Z,1.40
2019-04-25T10:39:23.223Z,1.40
2019-04-25T10:41:54.050Z,1.70
2019-04-25T10:44:24.547Z,1.80
2019-04-25T10:46:54.624Z,1.53
2019-04-25T10:49:24.057Z,1.40
2019-04-25T10:51:54.166Z,1.27
2019-04-25T10:54:23.765Z,1.67
2019-04-25T10:56:52.972Z,1.10
2019-04-25T10:59:23.577Z,1.37
2019-04-25T11:01:53.898Z,1.30
2019-04-25T11:04:29.601Z,1.00
2019-04-25T11:06:58.603Z,1.50
2019-04-25T11:09:27.711Z,1.50
2019-04-25T11:11:56.758Z,1.53
2019-04-25T11:14:26.386Z,1.37
2019-04-25T11:16:56.458Z,1.27
2019-04-25T11:19:25.583Z,1.30
2019-04-25T11:21:54.578Z,1.30
2019-04-25T11:24:23.832Z,0.90
2019-04-25T11:26:55.100Z,1.20
2019-04-25T11:29:24.455Z,1.57
2019-04-25T11:31:53.567Z,1.10
2019-04-25T11:34:23.131Z,1.07
2019-04-25T11:36:52.165Z,1.27
2019-04-25T11:39:39.029Z,1.03
2019-04-25T11:42:16.018Z,1.30
2019-04-25T11:44:45.726Z,1.10
2019-04-25T11:47:15.532Z,1.03
2019-04-25T11:49:46.350Z,1.10
2019-04-25T11:52:26.856Z,1.20
2019-04-25T11:54:46.858Z,1.20
2019-04-25T11:57:16.614Z,1.03
2019-04-25T11:59:48.883Z,1.13
2019-04-25T12:02:16.941Z,1.27
2019-04-25T12:04:46.858Z,1.40
2019-04-25T12:07:17.189Z,1.30
2019-04-25T12:09:46.874Z,1.27
2019-04-25T12:12:17.196Z,1.40
2019-04-25T12:14:47.561Z,1.40
2019-04-25T12:17:17.087Z,1.50
2019-04-25T12:19:47.055Z,1.30
2019-04-25T12:22:16.567Z,1.60
2019-04-25T12:24:46.697Z,1.53
2019-04-25T12:27:15.774Z,1.50
2019-04-25T12:29:45.850Z,1.73
2019-04-25T12:32:15.356Z,1.33
2019-04-25T12:34:45.772Z,1.70
2019-04-25T12:37:14.867Z,1.50
2019-04-25T12:39:44.652Z,1.73
2019-04-25T12:42:14.445Z,1.90
2019-04-25T12:44:54.788Z,1.80
2019-04-25T12:47:25.165Z,1.90
2019-04-25T12:49:55.134Z,2.13
2019-04-25T12:52:25.396Z,2.40
2019-04-25T12:54:57.214Z,2.30
2019-04-25T12:57:26.527Z,2.50
2019-04-25T12:59:55.576Z,1.90
2019-04-25T13:02:24.595Z,2.10
2019-04-25T13:04:55.205Z,2.10
2019-04-25T13:07:24.376Z,1.77
2019-04-25T13:09:53.767Z,1.50
2019-04-25T13:12:23.419Z,1.80
2019-04-25T13:14:52.603Z,1.00
2019-04-25T13:17:21.626Z,0.90
2019-04-25T13:19:50.721Z,0.80
2019-04-25T13:22:19.919Z,0.80
2019-04-25T13:24:48.973Z,1.10
2019-04-25T13:27:39.968Z,1.00
2019-04-25T13:30:21.985Z,1.10
2019-04-25T13:33:08.963Z,0.70
2019-04-25T13:35:44.774Z,1.10
2019-04-25T13:38:13.799Z,1.07
2019-04-25T13:40:42.854Z,1.10
2019-04-25T13:43:12.525Z,0.90
2019-04-25T13:45:41.581Z,0.90
2019-04-25T13:48:11.354Z,1.40
2019-04-25T13:50:40.371Z,1.20
2019-04-25T13:53:09.559Z,1.27
2019-04-25T13:55:39.984Z,0.90
2019-04-25T13:58:11.181Z,1.20
2019-04-25T14:00:40.186Z,1.13
2019-04-25T14:03:09.197Z,1.37
2019-04-25T14:05:38.521Z,1.30
2019-04-25T14:08:07.587Z,1.30
2019-04-25T14:10:36.647Z,1.00
2019-04-25T14:13:06.322Z,1.07
2019-04-25T14:15:37.241Z,1.37
2019-04-25T14:18:20.264Z,1.27
2019-04-25T14:20:54.166Z,1.50
2019-04-25T14:23:24.767Z,1.37
2019-04-25T14:25:54.580Z,1.20
2019-04-25T14:28:25.523Z,1.40
2019-04-25T14:30:54.598Z,1.40
2019-04-25T14:33:25.400Z,1.40
2019-04-25T14:35:54.881Z,1.50
2019-04-25T14:38:25.337Z,1.27
2019-04-25T14:40:55.056Z,1.83
2019-04-25T14:43:25.038Z,1.80
2019-04-25T14:45:56.181Z,1.50
2019-04-25T14:48:25.173Z,1.80
2019-04-25T14:50:54.866Z,1.60
2019-04-25T14:53:24.293Z,2.00
2019-04-25T14:56:07.776Z,1.90
2019-04-25T14:58:38.164Z,2.00
2019-04-25T15:01:07.611Z,1.87
2019-04-25T15:03:37.015Z,1.70
2019-04-25T15:06:06.154Z,1.73
2019-04-25T15:08:35.565Z,1.30
2019-04-25T15:11:05.241Z,1.83
2019-04-25T15:13:35.231Z,2.00
2019-04-25T15:16:05.056Z,1.70
2019-04-25T15:18:45.825Z,1.60
2019-04-25T15:21:05.717Z,1.70
2019-04-25T15:23:35.825Z,1.80
2019-04-25T15:26:04.892Z,1.67
2019-04-25T15:28:33.918Z,1.80
2019-04-25T15:31:02.997Z,1.70
2019-04-25T15:33:33.127Z,1.80
2019-04-25T15:36:09.735Z,1.83
2019-04-25T15:39:15.965Z,1.93
2019-04-25T15:41:59.778Z,1.90
2019-04-25T15:44:50.733Z,1.90
2019-04-25T15:47:23.257Z,2.10
2019-04-25T15:49:52.283Z,2.33
2019-04-25T15:52:21.341Z,2.30
2019-04-25T15:54:50.341Z,1.80
2019-04-25T15:57:19.391Z,2.27
2019-04-25T15:59:48.383Z,1.90
2019-04-25T16:02:17.839Z,1.80
2019-04-25T16:04:46.863Z,1.60
2019-04-25T16:07:16.194Z,1.90
2019-04-25T16:09:45.191Z,1.80
2019-04-25T16:12:14.692Z,1.70
2019-04-25T16:14:44.127Z,1.73
2019-04-25T16:17:13.197Z,1.90
2019-04-25T16:19:42.205Z,2.13
2019-04-25T16:22:11.609Z,1.77
2019-04-25T16:24:41.032Z,1.80
2019-04-25T16:27:11.889Z,1.87
2019-04-25T16:29:40.919Z,1.90
2019-04-25T16:32:20.342Z,2.23
2019-04-25T16:34:44.292Z,1.60
2019-04-25T16:37:13.305Z,1.77
2019-04-25T16:39:43.211Z,1.63
2019-04-25T16:42:12.706Z,1.90
2019-04-25T16:44:42.033Z,2.00
2019-04-25T16:47:11.418Z,1.53
2019-04-25T16:49:40.451Z,1.70
2019-04-25T16:52:10.795Z,1.80
2019-04-25T16:54:40.471Z,1.87
2019-04-25T16:57:09.755Z,1.70
2019-04-25T16:59:38.951Z,1.60
2019-04-25T17:02:08.214Z,1.70
2019-04-25T17:04:37.606Z,2.07
2019-04-25T17:07:07.059Z,2.13
2019-04-25T17:09:36.523Z,2.20
2019-04-25T17:12:08.014Z,1.70
2019-04-25T17:14:51.037Z,1.80
2019-04-25T17:17:38.067Z,1.90
2019-04-25T17:20:20.023Z,2.20
2019-04-25T17:22:49.633Z,1.47
2019-04-25T17:25:19.311Z,1.77
2019-04-25T17:27:48.328Z,1.80
2019-04-25T17:30:18.303Z,2.10
2019-04-25T17:33:10.281Z,2.10
2019-04-25T17:35:57.155Z,1.40
2019-04-25T17:38:35.976Z,1.80
2019-04-25T17:41:05.255Z,1.70
2019-04-25T17:43:34.509Z,1.43
2019-04-25T17:46:05.927Z,1.40
2019-04-25T17:48:34.948Z,1.50
2019-04-25T17:51:04.334Z,1.57
2019-04-25T17:53:34.347Z,1.73
2019-04-25T17:56:03.735Z,1.90
2019-04-25T17:58:33.321Z,1.70
2019-04-25T18:01:03.644Z,1.90
2019-04-25T18:03:33.609Z,1.20
2019-04-25T18:06:02.809Z,1.73
2019-04-25T18:08:31.863Z,1.80
2019-04-25T18:11:00.886Z,1.67
2019-04-25T18:13:30.263Z,1.77
2019-04-25T18:16:06.207Z,1.40
2019-04-25T18:18:45.628Z,1.50
2019-04-25T18:21:14.716Z,1.40
2019-04-25T18:24:13.064Z,1.40
2019-04-25T18:26:47.578Z,1.77
2019-04-25T18:29:17.262Z,1.50
2019-04-25T18:31:46.382Z,1.80
2019-04-25T18:34:28.442Z,1.90
2019-04-25T18:37:05.728Z,1.73
2019-04-25T18:39:41.949Z,1.50
2019-04-25T18:42:37.855Z,1.67
2019-04-25T18:45:07.845Z,1.87
2019-04-25T18:47:37.010Z,2.00
2019-04-25T18:50:07.026Z,1.80
2019-04-25T18:53:00.993Z,1.60
2019-04-25T18:55:37.583Z,1.80
2019-04-25T18:58:12.792Z,1.77
2019-04-25T19:00:52.792Z,1.47
2019-04-25T19:03:38.162Z,1.67
2019-04-25T19:06:10.436Z,1.50
2019-04-25T19:08:39.634Z,1.67
2019-04-25T19:11:08.785Z,1.60
2019-04-25T19:13:38.797Z,1.63
2019-04-25T19:16:08.880Z,1.60
2019-04-25T19:18:38.829Z,1.53
2019-04-25T19:21:09.314Z,1.50
2019-04-25T19:23:39.379Z,1.50
2019-04-25T19:26:09.132Z,1.70
2019-04-25T19:28:38.488Z,1.60
2019-04-25T19:31:08.618Z,1.50
2019-04-25T19:33:37.863Z,1.53
2019-04-25T19:36:06.899Z,1.43
2019-04-25T19:38:36.271Z,1.43
2019-04-25T19:41:25.313Z,1.50
2019-04-25T19:44:04.535Z,1.63
2019-04-25T19:46:42.846Z,1.60
2019-04-25T19:49:12.304Z,1.43
2019-04-25T19:51:41.832Z,1.50
2019-04-25T19:54:10.879Z,1.60
2019-04-25T19:56:39.950Z,1.50
2019-04-25T19:59:09.498Z,1.60
2019-04-25T20:01:38.514Z,1.50
2019-04-25T20:04:13.929Z,1.57
2019-04-25T20:07:02.321Z,1.60
2019-04-25T20:09:51.142Z,1.43
2019-04-25T20:12:21.253Z,1.67
2019-04-25T20:14:51.292Z,1.80
2019-04-25T20:17:20.400Z,1.87
2019-04-25T20:19:49.760Z,1.53
2019-04-25T20:22:18.927Z,1.73
2019-04-25T20:24:48.348Z,1.57
2019-04-25T20:27:17.470Z,1.70
2019-04-25T20:29:46.934Z,1.63
2019-04-25T20:32:15.961Z,1.70
2019-04-25T20:34:46.973Z,1.73
2019-04-25T20:37:16.170Z,1.70
2019-04-25T20:39:46.025Z,1.43
2019-04-25T20:42:15.059Z,1.40
2019-04-25T20:44:44.098Z,1.73
2019-04-25T20:47:13.121Z,1.83
2019-04-25T20:49:42.137Z,1.73
2019-04-25T20:52:11.172Z,1.70
2019-04-25T20:54:40.488Z,1.50
2019-04-25T20:57:09.766Z,1.60
2019-04-25T20:59:39.094Z,1.40
2019-04-25T21:02:08.881Z,1.63
2019-04-25T21:04:42.210Z,1.70
2019-04-25T21:07:11.634Z,1.60
2019-04-25T21:09:40.743Z,1.70
2019-04-25T21:12:10.553Z,1.70
2019-04-25T21:15:03.728Z,1.80
2019-04-25T21:17:54.926Z,1.80
2019-04-25T21:20:23.958Z,1.80
2019-04-25T21:22:53.824Z,1.67
2019-04-25T21:25:23.172Z,1.80
2019-04-25T21:27:52.604Z,1.63
2019-04-25T21:30:21.664Z,1.97
2019-04-25T21:32:53.399Z,1.63
2019-04-25T21:35:25.652Z,1.67
2019-04-25T21:37:55.524Z,2.10
2019-04-25T21:40:37.491Z,1.60
2019-04-25T21:43:10.818Z,2.07
2019-04-25T21:45:40.542Z,2.17
2019-04-25T21:48:10.235Z,2.00
2019-04-25T21:50:39.881Z,1.87
2019-04-25T21:53:09.591Z,2.10
2019-04-25T21:55:38.922Z,2.20
2019-04-25T21:58:08.126Z,2.40
2019-04-25T22:00:56.427Z,1.93
2019-04-25T22:03:26.146Z,2.30
2019-04-25T22:05:56.726Z,2.23
2019-04-25T22:08:26.366Z,2.37
2019-04-25T22:10:57.235Z,2.20
2019-04-25T22:13:26.320Z,2.27
2019-04-25T22:15:57.172Z,2.30
2019-04-25T22:18:26.942Z,2.50
2019-04-25T22:20:56.895Z,2.37
2019-04-25T22:23:25.963Z,2.60
2019-04-25T22:25:56.287Z,2.30
2019-04-25T22:28:25.732Z,2.40
2019-04-25T22:30:59.098Z,2.30
2019-04-25T22:33:47.668Z,2.20
2019-04-25T22:36:19.296Z,2.40
2019-04-25T22:39:07.840Z,2.50
2019-04-25T22:41:38.457Z,2.40
2019-04-25T22:44:08.871Z,2.40
2019-04-25T22:46:38.198Z,2.50
2019-04-25T22:49:07.682Z,2.33
2019-04-25T22:51:37.077Z,2.47
2019-04-25T22:54:07.399Z,2.40
2019-04-25T22:56:36.672Z,2.30
2019-04-25T22:59:06.868Z,2.53
2019-04-25T23:01:58.118Z,2.33
2019-04-25T23:04:44.912Z,2.13
2019-04-25T23:07:14.801Z,2.27
2019-04-25T23:09:44.648Z,2.67
2019-04-25T23:12:13.852Z,2.30
2019-04-25T23:14:43.422Z,2.37
2019-04-25T23:17:13.381Z,2.47
2019-04-25T23:19:42.944Z,2.80
2019-04-25T23:22:11.952Z,2.60
2019-04-25T23:24:46.107Z,3.00
2019-04-25T23:27:31.540Z,2.50
2019-04-25T23:30:00.563Z,2.70
2019-04-25T23:32:29.846Z,2.50
2019-04-25T23:34:58.858Z,2.47
2019-04-25T23:37:27.937Z,2.37
2019-04-25T23:39:57.055Z,2.60
2019-04-25T23:42:26.623Z,2.10
2019-04-25T23:44:56.928Z,2.27
2019-04-25T23:47:26.438Z,2.53
2019-04-25T23:49:55.690Z,2.60
2019-04-25T23:52:25.257Z,2.27
2019-04-25T23:54:54.418Z,2.20
2019-04-25T23:57:23.739Z,2.47
2019-04-25T23:59:53.076Z,2.53
